Decoded Metar for KSOP (SOUTHERN PINES in NC, USA) (IATA:SOP) | Meteo·Mobile Aviation Weather
aviador You're here:

KSOP Decoded Metar

SOUTHERN PINES in NC, USA
Report Time2018-08-20 18:19:00
UTC Time2018-08-20 18:43:36
Flight Rules vfr VFR
WindVRB at 03 kt
Visibility9999 m
Phenomena:N/A
Clouds:Few 023 Hf
Broken 035 Hf
Broken 047 Hf
Expected CloudBase > 2,000 ft AGL from Temp-Dew spread
Ceiling3,500 ft
Temp29°C (ISA +15)
Dew Point24°C (74% RH)
Heat Index33.5°C
QNH1017 hPa
Density Alt2,434 ft
Elevation463 ft
Report Wrong Elevation
Raw Report
KSOP 201819Z AUTO VRB03KT 10SM FEW023 BKN035 BKN047 29/24 A3003
RMK AO2=

Extra information for KSOP:More info

Metar Taf Metar & Taf Last 4 Metars F.Rules Stats Wind Profile Meteogram Temp Stats Airport Information Weather charts Add Link Nearby VenuesMetar ALERT Operation Metar Decoded Social comments

AIRNAV info for KSOP